• Join FlightAware (Why Join?)
  • Login
  • US Flag 
09:47PM EDT


 

Airport Tracker/Info


-or-


 

Live Flight TrackerFlight Track Log ✈ LXJ437 ✈ 25-Jun-2013 ✈ KACK - KJFK

Flight Track Log - Related Links

Times and Time Zones

All times are in EDT time to prevent confusion due to time zone crossing. See the LXJ437 flight status page for this flight to view local times or setup timezone preferences in your user account.

Time Position Orientation Groundspeed Altitude Reporting Facility
EDT Latitude Longitude Course Direction KTS MPH feet Rate Location/Type
12:48PM 41.1911 -70.1450 252° West 183 211 5,300  Level Boston Center
12:50PM 41.2242 -70.2239 299° West 207 238 6,600 1,500 Climbing Boston Center
12:51PM 41.2656 -70.3247 299° West 234 269 8,700 2,700 Climbing Boston Center
12:52PM 41.3092 -70.4228 301° West 255 293 12,000 2,640 Climbing Boston Center
12:53PM 41.3527 -70.7686 256° West  Level FlightAware Approximate
12:53PM 41.3589 -70.5347 301° West 307 353 14,000  Level Boston Center
12:54PM 41.3235 -70.8894 252° West  Level FlightAware Approximate
12:54PM 41.3903 -70.6608 288° West 336 387 15,500  Level Boston Center
12:55PM 41.3550 -70.8114 253° West 335 386 16,700 720 Climbing Boston Center
12:56PM 41.3253 -70.9308 252° West 340 391 17,000 780 Climbing Boston Center
12:57PM 41.2978 -71.0558 254° West 346 398 18,300 1,200 Climbing Boston Center
12:58PM 41.2639 -71.1808 250° West 353 406 19,400 840 Climbing Boston Center
12:59PM 41.2317 -71.3028 251° West 353 406 20,000 300 Climbing Boston Center
01:00PM 41.2119 -71.4108 256° West 363 418 20,000  Level Boston Center
01:01PM 41.1758 -71.5658 253° West 369 425 20,000  Level Boston Center
01:02PM 41.1517 -71.6739 253° West 359 413 20,000  Level Boston Center
01:03PM 41.1358 -71.8117 261° West 365 420 20,000  Level Boston Center
01:04PM 41.1178 -71.9717 262° West 391 450 20,000  Level Boston Center
01:05PM 41.0994 -72.1097 260° West 391 450 20,000  Level Boston Center
01:06PM 41.0706 -72.2419 254° West 386 444 20,000 -60 Level Boston Center
01:07PM 41.0375 -72.3767 252° West 386 444 19,900 -1,560 Descending Boston Center
01:08PM 41.0478 -72.4897 277° West 362 417 16,900 -3,480 Descending Boston Center
01:09PM 41.0331 -72.6133 261° West 354 407 13,000 -2,460 Descending Boston Center
01:10PM 40.9725 -72.7261 235° Southwest 343 395 12,000 -480 Descending Boston Center
01:11PM 40.9000 -72.8333 228° Southwest 296 341 12,000 -180 Level New York TRACON
01:12PM 40.8333 -72.9000 217° Southwest 299 344 11,600 -720 Descending New York TRACON
01:13PM 40.7667 -72.9500 210° Southwest 292 336 10,600 -1,080 Descending New York TRACON
01:14PM 40.7000 -73.0167 217° Southwest 275 316 9,500 -1,080 Descending New York TRACON
01:15PM 40.6500 -73.0833 225° Southwest 277 319 8,500 -1,020 Descending New York TRACON
01:16PM 40.6167 -73.1833 246° West 272 313 7,500 -1,020 Descending New York TRACON
01:17PM 40.6500 -73.2667 298° West 272 313 6,500 -1,080 Descending New York TRACON
01:18PM 40.7000 -73.3333 315° West 267 307 5,400 -1,080 Descending New York TRACON
01:19PM 40.7500 -73.3833 323° Northwest 227 261 4,400 -900 Descending New York TRACON
01:20PM 40.8000 -73.4333 323° Northwest 206 237 3,700 -720 Descending New York TRACON
01:21PM 40.8167 -73.5000 288° West 188 216 3,000 -360 Descending New York TRACON
01:22PM 40.8000 -73.5500 246° West 177 204 3,000  Level New York TRACON
01:23PM 40.7833 -73.6000 246° West 166 191 3,000 -180 Level New York TRACON
01:24PM 40.7500 -73.6500 229° Southwest 173 199 2,700 -600 Descending New York TRACON
01:25PM 40.7000 -73.6833 207° Southwest 178 205 1,800 -900 Descending New York TRACON
01:26PM 40.6667 -73.7333 229° Southwest 162 186 900 -900 Descending New York TRACON
01:28PM 40.6333 -73.7667 North  Level FlightAware Approximate
01:35PM 40.6398 -73.7789 North  Level Estimated
01:36PM 40.6398 -73.7789 North  Level Estimated